Sitka Rocky Gutierrez Airport
PASI : now visible

Airfield :











YOU CAN JOIN US ON...

 
LOGIN :

Register | Disclaimer

   EN    FR    IT 

 









Legend :    VFR   Marginal VFR   IFR   Intensive IFR   Very Intensive IFR
Visi :
Ceiling :
>= 8 km
>= 3000ft
5 to 8 km
1000 to 3000 ft
1500m to 5 km
500 to 1000 ft
800 to 1500m
200 to 500 ft
< 800m
< 200 ft
Symbols :   Thunderstorms  Fog  Heavy snow  Heavy precipitations  Wind > 20 kt






- Airport Elevation : 21 ft
- IATA code : SIT


PASI - Sitka Rocky Gutierrez

CURRENT METAR :
  • 210905Z 00000KT 10SM SCT008 OVC013 14/12 A3016 RMK AO2 T01440122 $

EXPIRED METARs :
  • 210853Z 00000KT 10SM BKN008 OVC013 14/12 A3016 RMK AO2 SLP214 T01440122 401670144 56005 $
  • 210753Z 29003KT 10SM BKN008 OVC013 14/13 A3017 RMK AO2 SLP215 T01440128 $
  • 210703Z 25003KT 10SM FEW003 OVC008 14/13 A3017 RMK AO2 T01440128 $
  • 210653Z 28003KT 10SM SCT003 OVC010 14/13 A3017 RMK AO2 SLP215 T01440128 $
  • 210611Z 30004KT 10SM FEW003 BKN012 OVC050 15/13 A3018 RMK AO2 T01500133 $
  • 210553Z 32004KT 10SM FEW003 SCT010 BKN055 15/13 A3018 RMK AO2 RAE03 SLP218 P0000 60005 T01500128 10161 20144 55003 $
  • 210508Z 33003KT 10SM FEW003 SCT016 BKN065 15/13 A3017 RMK AO2 RAE03 P0000 T01500128 $

TAF PASI
Valid from the 21 at 06:00 until the 22 at 06:00 UTC


210520Z 2106/2206 VRB04KT P6SM -RA FEW003 SCT016 OVC026
FM210800 VRB03KT P6SM SCT003 OVC050
FM211300 24005KT P6SM BKN025 OVC050
FM211700 22005KT P6SM BKN015 OVC025
FM212200 21006KT P6SM OVC050
PAZA FIR / North America



MET'MAP, your aeronautical weather chart ! - Copyright ORBIFLY December 2007 - Disclaimer

ORBIFLY MET'MAP TEAM :

Programming & Development : Alexandra Zaïnal
Original concept : Baudouin d'Aumeries
Technical & hardware support : Manuel Goepfert
Assistance : Marc-Olivier Méhu




SOURCES & CREDITS :

   NOAA       Earth
Advisory